New London, NH (03257)

3:46 PM EST on December 09, 2016 (GMT -0500)
Messer Pond | | Change Station

Elev 1138 ft 43.40 °N, 72.00 °W | Updated 3 seconds ago

Partly Cloudy
Partly Cloudy
23.2 °F
Feels Like 12 °F
N
11.0
Wind Variable Wind from West

Today
High -- | Low -- °F
--% Chance of Precip.
Yesterday
High -- | Low -- °F
Precip. -- in
Pressure 30.04 in
Visibility 10.0 miles
Clouds Scattered Clouds 5000 ft
Windchill 12 °F
Dew Point 12 °F
Humidity 63%
Rainfall 0.00 in
Snow Depth Not available.
7:09 AM 4:11 PM
Waxing Gibbous, 77% visible
METAR KLEB 091953Z 32008G18KT 300V010 10SM SCT050 M02/M13 A3001 RMK AO2 SLP171 T10221128
Pressure 30.04 in
Visibility 10.0 miles
Clouds Scattered Clouds 5000 ft
Windchill 12 °F
Dew Point 12 °F
Humidity 63%
Rainfall 0.00 in
Snow Depth Not available.
7:09 AM 4:11 PM
Waxing Gibbous, 77% visible
METAR KLEB 091953Z 32008G18KT 300V010 10SM SCT050 M02/M13 A3001 RMK AO2 SLP171 T10221128

10-Day Weather Forecast

Almanac

Astronomy

Dec. 09, 2016 Rise Set
Actual Time
Civil Twilight
Nautical Twilight
Astronomical Twilight
Moon
Length of Visible Light
Length of Day
Tomorrow will be .
, % of the Moon is Illuminated

Today's Extremes

State Highs State Lows

Community

WunderPhotos

Upload Photos

1,956,517 photos uploaded!

WunderBlog® & News

Nearby

Air Quality

  Air Quality AQ Index Pollutant
Not available.

Snow Depth

Station Depth Elevation

Earthquake Activity

City Distance Mag. Time & Date
Minimum magnitude displayed is 2.5.

Coastal Water Temperatures

Place Temperature

Stations

Nearby Weather Stations

Station Location Temp. Windchill Dew Point Humidity Wind Precip. Elev Updated Type
                   

Watches & Warnings

There are currently no watches in effect.